Kefallinia, Greece

3:37 PM EET on January 29, 2015 (GMT +0200)
SPARTIA | Change Station
CLOSE
Current Station
Personal Weather Station
Location: LEIVATHO, KEFALONIA
Elevation: 469 ft
Nearby Weather Stations

Elev 469 ft 38.11 °N, 20.56 °E | Updated 14 minutes ago

Mostly Cloudy
Mostly Cloudy
54.3 °F
Feels Like 54.3 °F
N
4.0
Wind Variable Wind from NW

Today
High -- | Low -- °F
--% Chance of Precip.
Yesterday
High -- | Low -- °F
Precip. -- in
7:45 AM 5:57 PM
Waxing Gibbous, 74% visible
Pressure 29.62 in
Visibility 6.2 miles
Clouds Few 1800 ft
Scattered Clouds 2500 ft
Mostly Cloudy 8000 ft
Dew Point 51 °F
Humidity 87%
Rainfall 0.10 in
Snow Depth Not available.
UV 1 out of 12
Pollen Not available.
Air Quality Not available.
Flu Activity Not available.
METAR LGZA 291250Z 02004KT 9999 FEW018 SCT025 BKN080 13/07 Q1003

More Conditions Fewer Conditions

Pressure 29.62 in
Visibility 6.2 miles
Clouds Few 1800 ft
Scattered Clouds 2500 ft
Mostly Cloudy 8000 ft
Dew Point 51 °F
Humidity 87%
Rainfall 0.10 in
Snow Depth Not available.
UV 1 out of 12
Pollen Not available.
Air Quality Not available.
Flu Activity Not available.
METAR LGZA 291250Z 02004KT 9999 FEW018 SCT025 BKN080 13/07 Q1003

More Conditions Fewer Conditions

10-Day Weather Forecast

Almanac

Astronomy

Jan. 29, 2015 Rise Set
Actual Time
Civil Twilight
Nautical Twilight
Astronomical Twilight
Moon
Length of Visible Light
Length of Day
Tomorrow will be .
, % of the Moon is Illuminated

Today's Extremes

Country Highs Country Lows

Community

WunderPhotos

Upload Photos

1,791,427 photos uploaded!

WunderBlogs® & News

Nearby

Air Quality

  Air Quality AQ Index Pollutant
Not available.

Snow Depth

Station Depth Elevation

Earthquake Activity

City Distance Mag. Time & Date
Minimum magnitude displayed is 2.5.

Coastal Water Temperatures

Place Temperature

Nearby Weather Stations